createdAt,value
2023-05-23T00:02:55.418Z,21.40
2023-05-23T00:05:22.450Z,21.30
2023-05-23T00:07:49.306Z,21.30
2023-05-23T00:10:16.187Z,21.30
2023-05-23T00:12:44.804Z,21.30
2023-05-23T00:15:12.207Z,21.30
2023-05-23T00:17:39.601Z,21.10
2023-05-23T00:20:11.896Z,21.30
2023-05-23T00:22:44.481Z,21.30
2023-05-23T00:25:11.405Z,21.30
2023-05-23T00:27:38.380Z,21.30
2023-05-23T00:30:07.985Z,21.30
2023-05-23T00:32:35.593Z,21.30
2023-05-23T00:35:02.702Z,21.30
2023-05-23T00:37:29.584Z,21.30
2023-05-23T00:39:56.568Z,21.30
2023-05-23T00:42:23.500Z,21.20
2023-05-23T00:44:50.371Z,21.20
2023-05-23T00:47:19.044Z,21.10
2023-05-23T00:49:46.257Z,21.00
2023-05-23T00:52:14.838Z,21.00
2023-05-23T00:54:42.533Z,21.00
2023-05-23T00:57:09.555Z,21.00
2023-05-23T00:59:37.954Z,21.00
2023-05-23T01:02:05.421Z,21.00
2023-05-23T01:04:34.155Z,21.00
2023-05-23T01:07:01.386Z,21.10
2023-05-23T01:09:29.938Z,21.10
2023-05-23T01:12:14.072Z,21.10
2023-05-23T01:14:47.230Z,21.00
2023-05-23T01:17:20.574Z,21.00
2023-05-23T01:19:58.529Z,21.00
2023-05-23T01:22:39.695Z,20.90
2023-05-23T01:25:15.750Z,20.90
2023-05-23T01:27:50.366Z,20.90
2023-05-23T01:30:20.624Z,21.00
2023-05-23T01:32:50.447Z,20.90
2023-05-23T01:35:22.367Z,20.90
2023-05-23T01:37:49.252Z,20.90
2023-05-23T01:40:16.240Z,20.90
2023-05-23T01:42:43.289Z,20.80
2023-05-23T01:45:12.886Z,20.80
2023-05-23T01:47:41.336Z,20.80
2023-05-23T01:50:09.533Z,20.80
2023-05-23T01:52:36.531Z,20.80
2023-05-23T01:55:09.856Z,20.70
2023-05-23T01:57:38.015Z,20.70
2023-05-23T02:00:06.824Z,20.60
2023-05-23T02:02:35.235Z,20.50
2023-05-23T02:05:02.300Z,20.40
2023-05-23T02:07:29.168Z,20.30
2023-05-23T02:09:56.496Z,20.30
2023-05-23T02:12:23.481Z,20.20
2023-05-23T02:14:52.196Z,20.20
2023-05-23T02:17:19.400Z,20.20
2023-05-23T02:19:47.702Z,20.20
2023-05-23T02:22:14.893Z,20.10
2023-05-23T02:24:41.901Z,20.10
2023-05-23T02:27:08.810Z,20.10
2023-05-23T02:29:35.951Z,19.80
2023-05-23T02:32:02.876Z,20.00
2023-05-23T02:34:29.716Z,20.00
2023-05-23T02:36:57.966Z,19.90
2023-05-23T02:39:24.814Z,19.90
2023-05-23T02:41:53.318Z,19.80
2023-05-23T02:44:20.285Z,19.70
2023-05-23T02:46:47.208Z,19.70
2023-05-23T02:49:14.072Z,19.70
2023-05-23T02:51:40.901Z,19.60
2023-05-23T02:54:09.153Z,19.60
2023-05-23T02:56:36.029Z,19.70
2023-05-23T02:59:02.962Z,19.70
2023-05-23T03:01:29.838Z,19.70
2023-05-23T03:03:56.817Z,19.70
2023-05-23T03:06:23.796Z,19.60
2023-05-23T03:08:50.873Z,19.50
2023-05-23T03:11:19.017Z,19.40
2023-05-23T03:13:45.953Z,19.30
2023-05-23T03:16:13.229Z,19.20
2023-05-23T03:18:41.967Z,19.10
2023-05-23T03:21:09.567Z,19.00
2023-05-23T03:23:36.660Z,19.00
2023-05-23T03:26:03.958Z,18.90
2023-05-23T03:28:32.580Z,18.80
2023-05-23T03:30:59.659Z,18.80
2023-05-23T03:33:26.544Z,18.70
2023-05-23T03:35:53.439Z,18.70
2023-05-23T03:38:20.422Z,18.60
2023-05-23T03:40:47.421Z,18.60
2023-05-23T03:43:14.249Z,18.50
2023-05-23T03:45:42.745Z,18.40
2023-05-23T03:48:09.825Z,18.40
2023-05-23T03:50:36.634Z,18.30
2023-05-23T03:53:03.582Z,18.20
2023-05-23T03:55:32.424Z,18.20
2023-05-23T03:57:59.268Z,18.10
2023-05-23T04:00:26.487Z,18.20
2023-05-23T04:02:54.801Z,18.20
2023-05-23T04:05:21.730Z,18.30
2023-05-23T04:07:49.200Z,18.30
2023-05-23T04:10:16.344Z,18.40
2023-05-23T04:12:43.563Z,18.50
2023-05-23T04:15:11.359Z,18.50
2023-05-23T04:17:38.899Z,18.50
2023-05-23T04:20:10.002Z,18.50
2023-05-23T04:22:37.189Z,18.40
2023-05-23T04:25:06.333Z,18.40
2023-05-23T04:27:34.548Z,18.40
2023-05-23T04:30:01.603Z,18.30
2023-05-23T04:32:28.673Z,18.30
2023-05-23T04:34:56.849Z,18.30
2023-05-23T04:37:26.346Z,18.30
2023-05-23T04:39:53.557Z,18.40
2023-05-23T04:42:24.545Z,18.40
2023-05-23T04:44:57.480Z,18.40
2023-05-23T04:47:28.686Z,18.40
2023-05-23T04:49:57.031Z,18.40
2023-05-23T04:52:27.534Z,18.50
2023-05-23T04:54:54.579Z,18.50
2023-05-23T04:57:22.108Z,18.60
2023-05-23T04:59:49.103Z,18.70
2023-05-23T05:02:15.985Z,18.70
2023-05-23T05:04:42.852Z,18.70
2023-05-23T05:07:09.865Z,18.60
2023-05-23T05:09:38.167Z,18.30
2023-05-23T05:12:05.311Z,18.50
2023-05-23T05:14:32.248Z,18.40
2023-05-23T05:16:59.222Z,18.40
2023-05-23T05:19:26.551Z,18.50
2023-05-23T05:21:53.552Z,18.50
2023-05-23T05:24:23.059Z,18.70
2023-05-23T05:26:51.316Z,18.70
2023-05-23T05:29:18.206Z,18.80
2023-05-23T05:31:45.236Z,18.80
2023-05-23T05:34:12.655Z,18.90
2023-05-23T05:36:45.739Z,18.90
2023-05-23T05:39:13.723Z,18.90
2023-05-23T05:41:40.818Z,19.00
2023-05-23T05:44:09.598Z,19.00
2023-05-23T05:46:36.486Z,19.10
2023-05-23T05:49:03.430Z,19.00
2023-05-23T05:51:31.548Z,18.90
2023-05-23T05:53:58.537Z,18.80
2023-05-23T05:56:26.134Z,18.70
2023-05-23T05:58:53.102Z,18.60
2023-05-23T06:01:21.279Z,18.60
2023-05-23T06:03:48.442Z,18.60
2023-05-23T06:06:15.436Z,18.70
2023-05-23T06:08:43.193Z,18.80
2023-05-23T06:11:10.084Z,18.90
2023-05-23T06:13:36.971Z,18.80
2023-05-23T06:16:04.294Z,18.90
2023-05-23T06:18:32.508Z,19.00
2023-05-23T06:21:00.115Z,19.00
2023-05-23T06:23:27.094Z,19.10
2023-05-23T06:25:54.109Z,19.10
2023-05-23T06:28:21.120Z,19.10
2023-05-23T06:30:47.914Z,19.10
2023-05-23T06:33:14.975Z,19.10
2023-05-23T06:35:43.373Z,19.10
2023-05-23T06:38:10.203Z,19.00
2023-05-23T06:40:37.140Z,18.90
2023-05-23T06:43:04.036Z,18.80
2023-05-23T06:45:30.954Z,18.80
2023-05-23T06:47:57.919Z,18.80
2023-05-23T06:50:24.794Z,18.90
2023-05-23T06:52:53.003Z,18.90
2023-05-23T06:55:20.354Z,19.00
2023-05-23T06:57:47.380Z,19.00
2023-05-23T07:00:14.999Z,19.00
2023-05-23T07:02:42.723Z,19.00
2023-05-23T07:05:09.915Z,19.00
2023-05-23T07:07:36.818Z,19.20
2023-05-23T07:10:06.086Z,19.40
2023-05-23T07:12:34.899Z,19.60
2023-05-23T07:15:01.966Z,19.80
2023-05-23T07:17:30.269Z,20.00
2023-05-23T07:19:57.226Z,20.20
2023-05-23T07:22:24.268Z,20.40
2023-05-23T07:24:51.181Z,20.60
2023-05-23T07:27:19.458Z,20.70
2023-05-23T07:29:46.446Z,20.80
2023-05-23T07:32:13.285Z,20.80
2023-05-23T07:34:40.236Z,20.90
2023-05-23T07:37:07.052Z,20.90
2023-05-23T07:39:34.784Z,20.90
2023-05-23T07:42:01.717Z,20.80
2023-05-23T07:44:30.042Z,20.70
2023-05-23T07:46:57.037Z,20.70
2023-05-23T07:49:23.995Z,20.70
2023-05-23T07:51:50.807Z,20.60
2023-05-23T07:54:17.700Z,20.60
2023-05-23T07:56:45.139Z,20.50
2023-05-23T07:59:12.058Z,20.50
2023-05-23T08:01:40.413Z,20.40
2023-05-23T08:04:07.498Z,20.40
2023-05-23T08:06:34.444Z,20.40
2023-05-23T08:09:02.586Z,20.40
2023-05-23T08:11:30.389Z,20.50
2023-05-23T08:13:58.883Z,20.50
2023-05-23T08:16:28.021Z,20.50
2023-05-23T08:18:56.349Z,20.60
2023-05-23T08:21:24.322Z,20.70
2023-05-23T08:23:51.213Z,20.80
2023-05-23T08:26:18.173Z,20.90
2023-05-23T08:28:45.108Z,20.90
2023-05-23T08:31:12.083Z,20.90
2023-05-23T08:33:38.991Z,21.00
2023-05-23T08:36:07.449Z,21.10
2023-05-23T08:38:34.353Z,21.30
2023-05-23T08:41:02.409Z,21.40
2023-05-23T08:43:29.562Z,21.70
2023-05-23T08:45:57.319Z,21.90
2023-05-23T08:48:27.049Z,22.00
2023-05-23T08:50:54.136Z,22.20
2023-05-23T08:53:25.942Z,22.20
2023-05-23T08:55:55.647Z,22.10
2023-05-23T08:58:24.807Z,22.00
2023-05-23T09:00:53.766Z,21.90
2023-05-23T09:03:21.172Z,21.60
2023-05-23T09:05:49.837Z,21.40
2023-05-23T09:08:17.032Z,21.10
2023-05-23T09:10:45.340Z,20.90
2023-05-23T09:13:12.480Z,20.80
2023-05-23T09:15:39.368Z,20.70
2023-05-23T09:18:06.597Z,20.60
2023-05-23T09:20:33.551Z,20.40
2023-05-23T09:23:02.957Z,20.20
2023-05-23T09:25:30.846Z,20.10
2023-05-23T09:28:01.146Z,20.00
2023-05-23T09:30:27.986Z,19.90
2023-05-23T09:33:02.947Z,19.90
2023-05-23T09:35:31.965Z,19.90
2023-05-23T09:37:59.340Z,20.00
2023-05-23T09:40:30.914Z,20.30
2023-05-23T09:43:03.035Z,20.50
2023-05-23T09:45:31.254Z,20.70
2023-05-23T09:47:58.134Z,20.90
2023-05-23T09:50:32.314Z,21.00
2023-05-23T09:52:59.555Z,21.20
2023-05-23T09:55:26.604Z,21.30
2023-05-23T09:57:56.772Z,21.30
2023-05-23T10:00:26.008Z,21.30
2023-05-23T10:02:55.851Z,21.30
2023-05-23T10:05:34.660Z,21.30
2023-05-23T10:08:05.082Z,21.20
2023-05-23T10:10:33.797Z,21.10
2023-05-23T10:13:05.043Z,21.00
2023-05-23T10:15:38.886Z,20.80
2023-05-23T10:18:10.825Z,20.70
2023-05-23T10:20:40.377Z,20.60
2023-05-23T10:23:07.707Z,20.50
2023-05-23T10:25:37.254Z,20.40
2023-05-23T10:28:05.478Z,20.40
2023-05-23T10:30:35.293Z,20.40
2023-05-23T10:33:03.276Z,20.40
2023-05-23T10:35:42.565Z,20.50
2023-05-23T10:38:20.105Z,20.50
2023-05-23T10:40:53.868Z,20.60
2023-05-23T10:43:27.179Z,20.60
2023-05-23T10:45:55.556Z,20.70
2023-05-23T10:48:23.428Z,20.70
2023-05-23T10:51:06.786Z,20.80
2023-05-23T10:53:36.233Z,20.70
2023-05-23T10:56:06.077Z,20.70
2023-05-23T10:58:34.024Z,20.60
2023-05-23T11:01:05.605Z,20.50
2023-05-23T11:03:35.540Z,20.40
2023-05-23T11:06:03.138Z,20.30
2023-05-23T11:08:46.956Z,20.10
2023-05-23T11:11:14.978Z,20.20
2023-05-23T11:14:00.752Z,20.20
2023-05-23T11:16:31.202Z,20.20
2023-05-23T11:19:28.917Z,20.10
2023-05-23T11:21:58.705Z,20.10
2023-05-23T11:24:57.980Z,20.20
2023-05-23T11:27:29.300Z,20.30
2023-05-23T11:30:04.903Z,20.40
2023-05-23T11:32:33.832Z,20.50
2023-05-23T11:35:01.419Z,20.60
2023-05-23T11:37:29.425Z,20.60
2023-05-23T11:39:56.374Z,20.70
2023-05-23T11:42:24.202Z,20.90
2023-05-23T11:44:51.539Z,21.10
2023-05-23T11:47:18.990Z,21.30
2023-05-23T11:49:48.516Z,21.40
2023-05-23T11:52:15.695Z,21.60
2023-05-23T11:54:43.539Z,21.70
2023-05-23T11:57:11.061Z,21.90
2023-05-23T11:59:38.972Z,21.90
2023-05-23T12:02:07.588Z,21.90
2023-05-23T12:04:36.558Z,22.00
2023-05-23T12:07:07.531Z,22.00
2023-05-23T12:09:42.602Z,22.00
2023-05-23T12:12:09.647Z,22.00
2023-05-23T12:14:38.784Z,22.00
2023-05-23T12:17:06.006Z,22.00
2023-05-23T12:19:33.834Z,21.90
2023-05-23T12:22:08.322Z,21.80
2023-05-23T12:24:35.383Z,21.70
2023-05-23T12:27:03.451Z,21.80
2023-05-23T12:29:34.288Z,22.00
2023-05-23T12:32:03.183Z,22.10
2023-05-23T12:34:30.106Z,22.10
2023-05-23T12:37:10.586Z,22.00
2023-05-23T12:39:46.292Z,21.90
2023-05-23T12:42:13.432Z,21.70
2023-05-23T12:44:41.498Z,21.50
2023-05-23T12:47:08.451Z,21.30
2023-05-23T12:49:35.472Z,21.10
2023-05-23T12:52:02.540Z,20.80
2023-05-23T12:54:29.458Z,20.70
2023-05-23T12:56:57.801Z,20.60
2023-05-23T12:59:24.728Z,20.60
2023-05-23T13:01:51.788Z,20.50
2023-05-23T13:04:18.782Z,20.60
2023-05-23T13:06:45.757Z,20.70
2023-05-23T13:09:12.616Z,20.80
2023-05-23T13:11:39.722Z,20.90
2023-05-23T13:14:07.966Z,21.00
2023-05-23T13:16:36.320Z,21.00
2023-05-23T13:19:03.383Z,21.00
2023-05-23T13:21:31.605Z,20.90
2023-05-23T13:23:58.490Z,20.80
2023-05-23T13:26:26.164Z,20.70
2023-05-23T13:28:53.116Z,20.70
2023-05-23T13:31:21.804Z,20.70
2023-05-23T13:33:48.740Z,20.70
2023-05-23T13:36:15.579Z,20.80
2023-05-23T13:38:42.568Z,20.90
2023-05-23T13:41:09.532Z,20.90
2023-05-23T13:43:36.565Z,20.90
2023-05-23T13:46:03.676Z,20.90
2023-05-23T13:48:31.970Z,20.90
2023-05-23T13:50:59.447Z,20.90
2023-05-23T13:53:26.502Z,21.00
2023-05-23T13:55:53.380Z,21.00
2023-05-23T13:58:20.502Z,21.00
2023-05-23T14:00:47.654Z,21.00
2023-05-23T14:03:15.691Z,21.10
2023-05-23T14:05:44.233Z,21.00
2023-05-23T14:08:13.316Z,21.00
2023-05-23T14:10:40.414Z,21.00
2023-05-23T14:13:07.665Z,20.90
2023-05-23T14:15:34.838Z,21.00
2023-05-23T14:18:01.845Z,21.00
2023-05-23T14:20:29.829Z,20.80
2023-05-23T14:22:58.072Z,20.70
2023-05-23T14:25:24.932Z,20.60
2023-05-23T14:27:51.740Z,20.50
2023-05-23T14:30:18.663Z,20.50
2023-05-23T14:32:45.691Z,20.50
2023-05-23T14:35:12.807Z,20.50
2023-05-23T14:37:39.865Z,20.60
2023-05-23T14:40:10.334Z,20.60
2023-05-23T14:42:37.709Z,20.70
2023-05-23T14:45:05.435Z,20.70
2023-05-23T14:47:32.617Z,20.60
2023-05-23T14:49:59.659Z,20.60
2023-05-23T14:52:26.807Z,20.70
2023-05-23T14:54:53.760Z,20.70
2023-05-23T14:57:22.013Z,20.70
2023-05-23T14:59:48.888Z,20.80
2023-05-23T15:02:16.187Z,20.80
2023-05-23T15:04:43.331Z,20.70
2023-05-23T15:07:10.168Z,20.70
2023-05-23T15:09:37.512Z,20.70
2023-05-23T15:12:07.557Z,20.70
2023-05-23T15:14:35.938Z,20.70
2023-05-23T15:17:07.974Z,20.80
2023-05-23T15:19:35.899Z,20.90
2023-05-23T15:22:04.658Z,21.00
2023-05-23T15:24:31.818Z,20.90
2023-05-23T15:27:11.833Z,20.90
2023-05-23T15:29:47.295Z,20.90
2023-05-23T15:32:14.296Z,20.80
2023-05-23T15:34:41.285Z,20.70
2023-05-23T15:37:08.192Z,20.70
2023-05-23T15:39:35.043Z,20.70
2023-05-23T15:42:01.982Z,20.60
2023-05-23T15:44:29.429Z,20.60
2023-05-23T15:46:57.801Z,20.60
2023-05-23T15:49:26.865Z,20.60
2023-05-23T15:51:55.150Z,20.60
2023-05-23T15:54:22.384Z,20.60
2023-05-23T15:56:49.325Z,20.40
2023-05-23T15:59:16.175Z,20.30
2023-05-23T16:01:43.107Z,20.10
2023-05-23T16:04:11.480Z,20.00
2023-05-23T16:06:39.228Z,19.80
2023-05-23T16:09:06.216Z,19.70
2023-05-23T16:11:33.083Z,19.60
2023-05-23T16:13:59.960Z,19.40
2023-05-23T16:16:26.880Z,19.40
2023-05-23T16:18:53.926Z,19.30
2023-05-23T16:21:22.293Z,19.20
2023-05-23T16:23:49.487Z,19.10
2023-05-23T16:26:17.773Z,19.00
2023-05-23T16:28:44.864Z,18.90
2023-05-23T16:31:14.697Z,18.80
2023-05-23T16:33:41.656Z,18.80
2023-05-23T16:36:08.765Z,18.80
2023-05-23T16:38:37.009Z,18.90
2023-05-23T16:41:04.079Z,18.90
2023-05-23T16:43:31.227Z,18.90
2023-05-23T16:45:58.138Z,18.90
2023-05-23T16:48:25.079Z,18.90
2023-05-23T16:50:53.664Z,18.90
2023-05-23T16:53:20.776Z,18.90
2023-05-23T16:55:49.414Z,19.00
2023-05-23T16:58:18.634Z,19.00
2023-05-23T17:00:47.036Z,19.00
2023-05-23T17:03:14.008Z,19.00
2023-05-23T17:05:41.195Z,19.00
2023-05-23T17:08:08.569Z,19.00
2023-05-23T17:10:36.429Z,18.90
2023-05-23T17:13:04.811Z,18.80
2023-05-23T17:15:31.795Z,18.80
2023-05-23T17:17:58.793Z,18.80
2023-05-23T17:20:26.980Z,18.80
2023-05-23T17:22:54.644Z,18.80
2023-05-23T17:25:21.773Z,18.70
2023-05-23T17:27:48.754Z,18.60
2023-05-23T17:30:20.063Z,18.60
2023-05-23T17:32:47.140Z,18.50
2023-05-23T17:35:14.305Z,18.40
2023-05-23T17:37:43.518Z,18.40
2023-05-23T17:40:11.604Z,18.30
2023-05-23T17:42:39.963Z,18.20
2023-05-23T17:45:09.388Z,18.10
2023-05-23T17:47:37.835Z,18.00
2023-05-23T17:50:06.256Z,17.90
2023-05-23T17:52:33.120Z,17.90
2023-05-23T17:55:00.236Z,17.90
2023-05-23T17:57:28.186Z,18.00
2023-05-23T17:59:55.065Z,17.90
2023-05-23T18:02:21.995Z,17.90
2023-05-23T18:04:50.422Z,17.90
2023-05-23T18:07:18.982Z,17.90
2023-05-23T18:09:46.938Z,17.90
2023-05-23T18:12:14.731Z,17.90
2023-05-23T18:14:42.199Z,17.80
2023-05-23T18:17:09.905Z,17.80
2023-05-23T18:19:37.480Z,17.70
2023-05-23T18:22:06.559Z,17.70
2023-05-23T18:24:33.392Z,17.70
2023-05-23T18:27:00.846Z,17.70
2023-05-23T18:29:27.804Z,17.70
2023-05-23T18:31:54.702Z,17.60
2023-05-23T18:34:21.767Z,17.60
2023-05-23T18:36:48.687Z,17.60
2023-05-23T18:39:17.064Z,17.60
2023-05-23T18:41:43.983Z,17.50
2023-05-23T18:44:10.992Z,17.40
2023-05-23T18:46:37.896Z,17.50
2023-05-23T18:49:05.040Z,17.50
2023-05-23T18:51:33.346Z,17.40
2023-05-23T18:54:00.258Z,17.40
2023-05-23T18:56:28.585Z,17.40
2023-05-23T18:58:55.932Z,17.40
2023-05-23T19:01:22.966Z,17.30
2023-05-23T19:03:50.034Z,17.30
2023-05-23T19:06:17.100Z,17.30
2023-05-23T19:08:44.022Z,17.20
2023-05-23T19:11:11.323Z,17.20
2023-05-23T19:13:39.778Z,17.20
2023-05-23T19:16:07.240Z,17.20
2023-05-23T19:18:34.238Z,17.10
2023-05-23T19:21:01.084Z,17.10
2023-05-23T19:23:28.212Z,17.00
2023-05-23T19:25:55.137Z,17.00
2023-05-23T19:28:22.001Z,17.00
2023-05-23T19:30:50.363Z,17.00
2023-05-23T19:33:18.225Z,16.90
2023-05-23T19:35:45.262Z,16.80
2023-05-23T19:38:12.179Z,16.80
2023-05-23T19:40:39.286Z,16.80
2023-05-23T19:43:06.455Z,16.80
2023-05-23T19:45:33.443Z,16.80
2023-05-23T19:48:01.880Z,16.80
2023-05-23T19:50:29.063Z,16.70
2023-05-23T19:52:56.002Z,16.70
2023-05-23T19:55:22.954Z,16.70
2023-05-23T19:57:49.863Z,16.60
2023-05-23T20:00:17.555Z,16.60
2023-05-23T20:02:45.039Z,16.60
2023-05-23T20:05:13.332Z,16.50
2023-05-23T20:07:40.308Z,16.50
2023-05-23T20:10:08.104Z,16.50
2023-05-23T20:12:35.004Z,16.40
2023-05-23T20:15:02.325Z,16.40
2023-05-23T20:17:30.007Z,16.40
2023-05-23T20:19:57.006Z,16.40
2023-05-23T20:22:25.177Z,16.30
2023-05-23T20:24:52.057Z,16.30
2023-05-23T20:27:18.949Z,16.30
2023-05-23T20:29:45.832Z,16.30
2023-05-23T20:32:12.742Z,16.30
2023-05-23T20:34:39.613Z,16.30
2023-05-23T20:37:06.559Z,16.30
2023-05-23T20:39:34.887Z,16.30
2023-05-23T20:42:02.049Z,16.30
2023-05-23T20:44:28.958Z,16.30
2023-05-23T20:46:56.959Z,16.20
2023-05-23T20:49:24.825Z,16.20
2023-05-23T20:51:51.795Z,16.20
2023-05-23T20:54:19.022Z,16.20
2023-05-23T20:56:47.274Z,16.20
2023-05-23T20:59:16.384Z,16.20
2023-05-23T21:01:43.482Z,16.10
2023-05-23T21:04:10.365Z,16.30
2023-05-23T21:06:37.261Z,16.30
2023-05-23T21:09:04.233Z,16.20
2023-05-23T21:11:31.059Z,16.20
2023-05-23T21:13:59.335Z,16.20
2023-05-23T21:16:26.359Z,16.10
2023-05-23T21:18:53.282Z,16.00
2023-05-23T21:21:20.431Z,16.00
2023-05-23T21:23:47.327Z,16.00
2023-05-23T21:26:14.212Z,15.90
2023-05-23T21:28:41.147Z,15.90
2023-05-23T21:31:09.830Z,15.80
2023-05-23T21:33:36.821Z,15.80
2023-05-23T21:36:04.055Z,15.80
2023-05-23T21:38:31.233Z,15.70
2023-05-23T21:40:58.167Z,15.70
2023-05-23T21:43:25.074Z,15.70
2023-05-23T21:45:52.072Z,15.70
2023-05-23T21:48:20.416Z,15.60
2023-05-23T21:50:47.355Z,15.60
2023-05-23T21:53:14.959Z,15.50
2023-05-23T21:55:41.955Z,15.60
2023-05-23T21:58:08.774Z,15.50
2023-05-23T22:00:35.827Z,15.50
2023-05-23T22:03:02.806Z,15.40
2023-05-23T22:05:31.361Z,15.40
2023-05-23T22:07:58.186Z,15.40
2023-05-23T22:10:25.044Z,15.40
2023-05-23T22:12:52.110Z,15.30
2023-05-23T22:15:19.066Z,15.40
2023-05-23T22:17:46.764Z,15.30
2023-05-23T22:20:16.542Z,15.30
2023-05-23T22:22:44.814Z,15.30
2023-05-23T22:25:11.613Z,15.20
2023-05-23T22:27:38.488Z,15.20
2023-05-23T22:30:06.714Z,15.20
2023-05-23T22:32:33.700Z,15.20
2023-05-23T22:35:00.619Z,15.20
2023-05-23T22:37:27.551Z,15.10
2023-05-23T22:39:55.896Z,15.10
2023-05-23T22:42:22.708Z,15.10
2023-05-23T22:44:49.656Z,15.10
2023-05-23T22:47:16.550Z,15.10
2023-05-23T22:49:43.618Z,15.00
2023-05-23T22:52:10.892Z,15.00
2023-05-23T22:54:37.723Z,15.00
2023-05-23T22:57:06.035Z,15.00
2023-05-23T22:59:32.970Z,14.90
2023-05-23T23:01:59.843Z,14.90
2023-05-23T23:04:30.720Z,14.80
2023-05-23T23:06:59.188Z,14.80
2023-05-23T23:09:26.759Z,14.80
2023-05-23T23:11:53.749Z,14.70
2023-05-23T23:14:22.222Z,14.70
2023-05-23T23:16:50.378Z,14.60
2023-05-23T23:19:17.800Z,14.60
2023-05-23T23:21:44.734Z,14.50
2023-05-23T23:24:11.639Z,14.40
2023-05-23T23:26:38.737Z,14.30
2023-05-23T23:29:06.105Z,14.30
2023-05-23T23:31:34.373Z,14.20
2023-05-23T23:34:01.351Z,14.10
2023-05-23T23:36:28.230Z,14.10
2023-05-23T23:38:55.066Z,14.00
2023-05-23T23:41:22.817Z,13.80
2023-05-23T23:43:49.728Z,13.80
2023-05-23T23:46:18.737Z,13.60
2023-05-23T23:48:47.159Z,13.60
2023-05-23T23:51:14.248Z,13.50
2023-05-23T23:53:41.129Z,13.50
2023-05-23T23:56:08.004Z,13.40
2023-05-23T23:58:34.935Z,13.40
